Flight Track Log - Related Links

Times and Time Zones

All times are in EDT time to prevent confusion due to time zone crossing. See the DAL268 flight status page for this flight to view local times or setup timezone preferences in your user account.

Time Position Orientation Groundspeed Altitude Reporting Facility
EDT Latitude Longitude Course Direction KTS MPH feet Rate Location/Type
Tue 11:53:23 PM 40.6430 -73.7790 North  Level FlightAware ADS-B
Tue 11:55:55 PM 40.6430 -73.7780 90° East 2 2 29 Level FlightAware ADS-B
Tue 11:57:01 PM 40.6440 -73.7780 360° North 2 2 33 Level FlightAware ADS-B
Tue 11:58:43 PM 40.6430 -73.7780 180° South 2 2 36 Level FlightAware ADS-B
Wed 12:01:00 AM 40.5833 -73.3777 90° East  Level FlightAware Approximate
Wed 12:01:15 AM 40.6420 -73.7780 90° East 2 2  Level FlightAware ADS-B
Wed 12:03:00 AM 40.6000 -73.4715 90° East  Level FlightAware Approximate
Wed 12:04:00 AM 40.5833 -73.2926 90° East  Level FlightAware Approximate
Wed 12:05:00 AM 40.5562 -73.1175 97° East  Level FlightAware Approximate
Wed 12:06:00 AM 40.5667 -72.9422 90° East  Level FlightAware Approximate
Wed 12:06:11 AM 40.6410 -73.7770 90° East 16 18  Level FlightAware ADS-B
Wed 12:06:55 AM 40.6400 -73.7780 217° Southwest 18 21 78 Level FlightAware ADS-B
Wed 12:08:08 AM 40.6390 -73.7790 217° Southwest 31 36 86 Level FlightAware ADS-B
Wed 12:08:20 AM 40.6380 -73.7790 180° South 32 37 104 Level FlightAware ADS-B
Wed 12:08:48 AM 40.6370 -73.7800 217° Southwest 34 39 107 Level FlightAware ADS-B
Wed 12:09:04 AM 40.6360 -73.7800 180° South 15 17 117 Level FlightAware ADS-B
Wed 12:09:16 AM 40.6350 -73.7810 217° Southwest 16 18 124 Level FlightAware ADS-B
Wed 12:09:42 AM 40.6330 -73.7820 201° Southwest 16 18 129 Level FlightAware ADS-B
Wed 12:09:54 AM 40.6320 -73.7830 217° Southwest 17 20 142 Level FlightAware ADS-B
Wed 12:10:36 AM 40.6300 -73.7850 217° Southwest 31 36 149 Level FlightAware ADS-B
Wed 12:10:52 AM 40.6290 -73.7850 180° South 31 36 181 Level FlightAware ADS-B
Wed 12:11:04 AM 40.6280 -73.7860 217° Southwest 25 29 197 Level FlightAware ADS-B
Wed 12:11:36 AM 40.6280 -73.7850 90° East 24 28 211 Level FlightAware ADS-B
Wed 12:12:04 AM 40.6280 -73.7840 90° East 259 Level FlightAware ADS-B
Wed 12:13:15 AM 40.6330 -73.7800 31° Northeast 98 113 324 Level FlightAware ADS-B
Wed 12:13:27 AM 40.6390 -73.7760 27° Northeast 135 155 900 Level FlightAware ADS-B
Wed 12:13:55 AM 40.6570 -73.7610 32° Northeast 167 192 600 1,440 Climbing FlightAware ADS-B
Wed 12:14:17 AM 40.6685 -73.7453 46° Northeast 176 203 1,200 1,219 Climbing FlightAware ADS-B
Wed 12:14:59 AM 40.6700 -73.6950 88° East 225 259 1,900 1,105 Climbing FlightAware ADS-B
Wed 12:15:33 AM 40.6710 -73.6440 89° East 256 295 2,600 1,500 Climbing FlightAware ADS-B
Wed 12:15:55 AM 40.6720 -73.6080 88° East 274 315 3,300 2,100 Climbing FlightAware ADS-B
Wed 12:16:13 AM 40.6710 -73.5780 93° East 281 323 4,000 2,500 Climbing FlightAware ADS-B
Wed 12:16:43 AM 40.6620 -73.5260 103° East 294 338 5,300 2,727 Climbing FlightAware ADS-B
Wed 12:16:57 AM 40.6569 -73.5009 105° East 296 341 6,000 2,743 Climbing FlightAware ADS-B
Wed 12:17:18 AM 40.6511 -73.4651 102° East 299 344 6,900 2,550 Climbing FlightAware ADS-B
Wed 12:17:37 AM 40.6447 -73.4304 104° East 301 346 7,700 2,647 Climbing FlightAware ADS-B
Wed 12:17:52 AM 40.6392 -73.4030 105° East 308 354 8,400 2,625 Climbing FlightAware ADS-B
Wed 12:18:09 AM 40.6332 -73.3717 104° East 312 359 9,100 2,471 Climbing FlightAware ADS-B
Wed 12:18:26 AM 40.6272 -73.3394 104° East 317 365 9,800 1,920 Climbing FlightAware ADS-B
Wed 12:18:59 AM 40.6158 -73.2774 104° East 339 390 10,700 1,333 Climbing FlightAware ADS-B
Wed 12:19:29 AM 40.6038 -73.2138 104° East 369 425 11,200 1,180 Climbing FlightAware ADS-B
Wed 12:20:00 AM 40.5901 -73.1418 104° East 398 458 11,900 1,645 Climbing FlightAware ADS-B
Wed 12:20:31 AM 40.5764 -73.0692 104° East 411 473 12,900 1,950 Climbing FlightAware ADS-B
Wed 12:20:40 AM 40.5725 -73.0475 103° East 413 475 13,200 2,000 Climbing FlightAware ADS-B
Wed 12:21:31 AM 40.5850 -72.9270 82° East 428 493 14,900 2,061 Climbing FlightAware ADS-B
Wed 12:22:19 AM 40.6260 -72.8060 66° East 440 506 16,600 2,027 Climbing FlightAware ADS-B
Wed 12:22:45 AM 40.6582 -72.7446 55° Northeast 447 514 17,400 1,821 Climbing FlightAware ADS-B
Wed 12:23:15 AM 40.6940 -72.6769 55° Northeast 456 525 18,300 1,672 Climbing FlightAware ADS-B
Wed 12:23:46 AM 40.7310 -72.6071 55° Northeast 467 537 19,100 1,594 Climbing FlightAware ADS-B
Wed 12:24:19 AM 40.7732 -72.5276 55° Northeast 476 548 20,000 1,636 Climbing FlightAware ADS-B
Wed 12:24:52 AM 40.8150 -72.4490 55° Northeast 484 557 20,900 1,625 Climbing FlightAware ADS-B
Wed 12:25:07 AM 40.8346 -72.4117 55° Northeast 484 557 21,300 1,500 Climbing FlightAware ADS-B
Wed 12:25:44 AM 40.8827 -72.3204 55° Northeast 484 557 22,200 1,412 Climbing FlightAware ADS-B
Wed 12:26:15 AM 40.9233 -72.2430 55° Northeast 507 583 22,900 1,333 Climbing FlightAware ADS-B
Wed 12:26:47 AM 40.9661 -72.1609 55° Northeast 514 592 23,600 1,355 Climbing FlightAware ADS-B
Wed 12:27:17 AM 41.0075 -72.0817 55° Northeast 521 600 24,300 880 Climbing FlightAware ADS-B
Wed 12:28:02 AM 41.0620 -71.9770 55° Northeast 525 604 24,700 1,326 Climbing FlightAware ADS-B
Wed 12:28:17 AM 41.0360 -72.0280 236° Southwest 25,600 2,040 Climbing FlightAware ADS-B
Wed 12:28:52 AM 41.1330 -71.8390 56° Northeast 535 616 26,400 1,286 Climbing FlightAware ADS-B
Wed 12:29:27 AM 41.1870 -71.7360 55° Northeast 542 624 27,100 1,129 Climbing FlightAware ADS-B
Wed 12:30:17 AM 41.2600 -71.5960 55° Northeast 551 634 28,000 878 Climbing FlightAware ADS-B
Wed 12:31:30 AM 41.3350 -71.4500 56° Northeast 555 639 28,900 1,179 Climbing FlightAware ADS-B
Wed 12:32:14 AM 41.4280 -71.2680 56° Northeast 555 639 30,300 1,416 Climbing FlightAware ADS-B
Wed 12:32:59 AM 41.4940 -71.1370 56° Northeast 559 643 31,000 975 Climbing FlightAware ADS-B
Wed 12:33:34 AM 41.5450 -71.0360 56° Northeast 562 647 31,600 918 Climbing FlightAware ADS-B
Wed 12:34:24 AM 41.6170 -70.8930 56° Northeast 565 650 32,300 867 Climbing FlightAware ADS-B
Wed 12:35:04 AM 41.6750 -70.7770 56° Northeast 573 659 32,900 494 Climbing FlightAware ADS-B
Wed 12:35:49 AM 41.7430 -70.6410 56° Northeast 575 662 33,000 72 Climbing FlightAware ADS-B
Wed 12:36:27 AM 41.7800 -70.5680 56° Northeast 576 663 33,000  Level FlightAware ADS-B
Wed 12:38:25 AM 41.9460 -70.2330 56° Northeast 577 664 33,000  Level FlightAware ADS-B
Wed 12:39:01 AM 42.0220 -70.0770 57° Northeast 572 658 33,000  Level FlightAware ADS-B
Wed 12:39:48 AM 42.0950 -69.9270 57° Northeast 574 661 33,000  Level FlightAware ADS-B
Wed 12:40:33 AM 42.1520 -69.8090 57° Northeast 574 661 33,000  Level FlightAware ADS-B
Wed 12:41:56 AM 42.2580 -69.5920 57° Northeast 574 661 33,000  Level FlightAware ADS-B
Wed 12:42:33 AM 42.3370 -69.4270 57° Northeast 574 661 33,000  Level FlightAware ADS-B
Wed 12:43:18 AM 42.4030 -69.2890 57° Northeast 575 662 33,000  Level FlightAware ADS-B
Wed 12:43:58 AM 42.4620 -69.1650 57° Northeast 577 664 33,000  Level FlightAware ADS-B
Wed 12:44:43 AM 42.5240 -69.0340 57° Northeast 579 666 33,000  Level FlightAware ADS-B
Wed 12:45:36 AM 42.5740 -68.9290 57° Northeast 579 666 33,000  Level FlightAware ADS-B
Wed 12:46:03 AM 42.6060 -68.8580 59° Northeast 579 666 33,000  Level FlightAware ADS-B
Wed 12:47:03 AM 42.6790 -68.7000 58° Northeast 579 666 33,000  Level FlightAware ADS-B
Wed 12:47:51 AM 42.7360 -68.5740 58° Northeast 579 666 33,000  Level FlightAware ADS-B
Wed 12:48:27 AM 42.7800 -68.4790 58° Northeast 579 666 33,000  Level FlightAware ADS-B
Wed 12:49:15 AM 42.8380 -68.3530 58° Northeast 579 666 33,000  Level FlightAware ADS-B
Wed 12:51:06 AM 43.0500 -67.9060 57° Northeast 582 670 33,000  Level FlightAware ADS-B
Wed 12:51:44 AM 43.1330 -67.7260 58° Northeast 581 669 33,000  Level FlightAware ADS-B
Wed 12:52:29 AM 43.1990 -67.5800 58° Northeast 581 669 33,000  Level FlightAware ADS-B
Wed 12:53:09 AM 43.2550 -67.4560 58° Northeast 580 667 33,000  Level FlightAware ADS-B
Wed 12:53:53 AM 43.3170 -67.3180 58° Northeast 579 666 33,000  Level FlightAware ADS-B
Wed 12:54:34 AM 43.3740 -67.1900 58° Northeast 574 661 33,000  Level FlightAware ADS-B
Wed 12:55:29 AM 43.4510 -67.0190 58° Northeast 574 661 33,000  Level FlightAware ADS-B
Wed 12:56:13 AM 43.5130 -66.8780 59° Northeast 573 659 33,000  Level FlightAware ADS-B
Wed 12:56:49 AM 43.5620 -66.7650 59° Northeast 574 661 33,000  Level FlightAware ADS-B
Wed 12:57:39 AM 43.6310 -66.6080 59° Northeast 575 662 33,000  Level FlightAware ADS-B
Wed 12:58:15 AM 43.6790 -66.4970 59° Northeast 575 662 33,000  Level FlightAware ADS-B
Wed 12:59:04 AM 43.7480 -66.3370 59° Northeast 578 665 33,000  Level FlightAware ADS-B
Wed 12:59:44 AM 43.7960 -66.2250 59° Northeast 579 666 33,000  Level FlightAware ADS-B
Wed 01:00:25 AM 43.8600 -66.0780 59° Northeast 578 665 33,000  Level FlightAware ADS-B
Wed 01:01:05 AM 43.9140 -65.9510 59° Northeast 577 664 33,000  Level FlightAware ADS-B
Wed 01:01:51 AM 43.9760 -65.8050 59° Northeast 578 665 33,000  Level FlightAware ADS-B
Wed 01:02:30 AM 44.0310 -65.6760 59° Northeast 578 665 33,000  Level FlightAware ADS-B
Wed 01:03:15 AM 44.0930 -65.5290 60° Northeast 581 669 33,000  Level FlightAware ADS-B
Wed 01:03:55 AM 44.1470 -65.4020 59° Northeast 581 669 33,000  Level FlightAware ADS-B
Wed 01:04:35 AM 44.2010 -65.2720 60° Northeast 581 669 33,000  Level FlightAware ADS-B
Wed 01:05:15 AM 44.2550 -65.1440 59° Northeast 581 669 33,000  Level FlightAware ADS-B
Wed 01:06:00 AM 44.3160 -64.9990 60° Northeast 582 670 33,000  Level FlightAware ADS-B
Wed 01:06:45 AM 44.3770 -64.8510 60° Northeast 582 670 33,000  Level FlightAware ADS-B
Wed 01:07:20 AM 44.4250 -64.7350 60° Northeast 583 671 33,000  Level FlightAware ADS-B
Wed 01:08:09 AM 44.4910 -64.5740 60° Northeast 584 672 33,000  Level FlightAware ADS-B
Wed 01:08:49 AM 44.5440 -64.4430 60° Northeast 586 674 33,000  Level FlightAware ADS-B
Wed 01:09:30 AM 44.6000 -64.3050 60° Northeast 588 677 33,000  Level FlightAware ADS-B
Wed 01:10:25 AM 44.6730 -64.1230 61° Northeast 591 680 33,000  Level FlightAware ADS-B
Wed 01:11:37 AM 44.7700 -63.8810 60° Northeast 590 679 33,000  Level FlightAware ADS-B
Wed 01:12:19 AM 44.8230 -63.7490 60° Northeast 590 679 33,000  Level FlightAware ADS-B
Wed 01:12:57 AM 44.8710 -63.6270 61° Northeast 589 678 33,000  Level FlightAware ADS-B
Wed 01:13:42 AM 44.9340 -63.4670 61° Northeast 589 678 33,000  Level FlightAware ADS-B
Wed 01:14:38 AM 44.9850 -63.3380 61° Northeast 589 678 33,000  Level FlightAware ADS-B
Wed 01:15:23 AM 45.0360 -63.2090 61° Northeast 589 678 33,000  Level FlightAware ADS-B
Wed 01:15:58 AM 45.0750 -63.1080 61° Northeast 589 678 33,000  Level FlightAware ADS-B
Wed 01:16:48 AM 45.1310 -62.9650 61° Northeast 589 678 33,000  Level FlightAware ADS-B
Wed 01:17:25 AM 45.1720 -62.8590 61° Northeast 589 678 33,000  Level FlightAware ADS-B
Wed 01:18:25 AM 45.2400 -62.6860 61° Northeast 589 678 33,000  Level FlightAware ADS-B
Wed 01:19:01 AM 45.2800 -62.5820 61° Northeast 589 678 33,000  Level FlightAware ADS-B
Wed 01:19:49 AM 45.3340 -62.4440 61° Northeast 589 678 33,000  Level FlightAware ADS-B
Wed 01:21:15 AM 45.4300 -62.1960 61° Northeast 589 678 33,000  Level FlightAware ADS-B
Wed 01:21:51 AM 45.4710 -62.0920 61° Northeast 589 678 33,000  Level FlightAware ADS-B
Wed 01:22:37 AM 45.5220 -61.9590 61° Northeast 589 678 33,000  Level FlightAware ADS-B
Wed 01:23:13 AM 45.5630 -61.8550 61° Northeast 589 678 33,000  Level FlightAware ADS-B
Wed 01:24:01 AM 45.6170 -61.7160 61° Northeast 589 678 33,000  Level FlightAware ADS-B
Wed 01:24:43 AM 45.7920 -61.1880 64° Northeast 596 686 33,000  Level FlightAware ADS-B
Wed 01:25:19 AM 45.8380 -61.0610 62° Northeast 597 687 33,000  Level FlightAware ADS-B
Wed 01:26:34 AM 45.9310 -60.8000 63° Northeast 598 688 33,000  Level FlightAware ADS-B
Wed 01:27:17 AM 45.9850 -60.6450 63° Northeast 600 690 33,000  Level FlightAware ADS-B
Wed 01:27:59 AM 46.0380 -60.4950 63° Northeast 601 692 33,000  Level FlightAware ADS-B
Wed 01:28:39 AM 46.0890 -60.3490 63° Northeast 601 692 33,000  Level FlightAware ADS-B
Wed 01:29:23 AM 46.1440 -60.1940 63° Northeast 600 690 33,000  Level FlightAware ADS-B
Wed 01:29:59 AM 46.1880 -60.0650 64° Northeast 600 690 33,000  Level FlightAware ADS-B
Wed 01:31:15 AM 46.2810 -59.7940 64° Northeast 601 692 33,000  Level FlightAware ADS-B
Wed 01:31:55 AM 46.3320 -59.6470 63° Northeast 602 693 33,000  Level FlightAware ADS-B
Wed 01:32:33 AM 46.3790 -59.5080 64° Northeast 603 694 33,000  Level FlightAware ADS-B
Wed 01:33:19 AM 46.4350 -59.3410 64° Northeast 604 695 33,000  Level FlightAware ADS-B
Wed 01:34:01 AM 46.4860 -59.1890 64° Northeast 604 695 33,000  Level FlightAware ADS-B
Wed 01:34:45 AM 46.5380 -59.0310 64° Northeast 603 694 33,000  Level FlightAware ADS-B
Wed 01:37:07 AM 46.6890 -58.5700 64° Northeast 600 690 33,000  Level FlightAware ADS-B
Wed 01:37:47 AM 46.7550 -58.3660 65° Northeast 599 689 33,000  Level FlightAware ADS-B
Wed 01:38:27 AM 46.8030 -58.2160 65° Northeast 600 690 33,000  Level FlightAware ADS-B
Wed 01:39:14 AM 46.8540 -58.0570 65° Northeast 602 693 33,000  Level FlightAware ADS-B
Wed 01:39:50 AM 46.8900 -57.9440 65° Northeast 602 693 33,000  Level FlightAware ADS-B
Wed 01:41:13 AM 46.9830 -57.6500 65° Northeast 603 694 33,000  Level FlightAware ADS-B
Wed 01:41:55 AM 47.0440 -57.4520 66° East 605 696 33,000  Level FlightAware ADS-B
Wed 01:42:40 AM 47.0980 -57.2800 65° Northeast 606 697 33,000  Level FlightAware ADS-B
Wed 01:43:22 AM 47.1440 -57.1260 66° East 605 696 33,000  Level FlightAware ADS-B
Wed 01:44:08 AM 47.1970 -56.9510 66° East 604 695 33,000  Level FlightAware ADS-B
Wed 01:44:47 AM 47.2410 -56.8060 66° East 604 695 33,000  Level FlightAware ADS-B
Wed 01:45:26 AM 47.2830 -56.6630 67° East 604 695 33,000  Level FlightAware ADS-B
Wed 01:46:10 AM 47.3340 -56.4920 66° East 605 696 33,000  Level FlightAware ADS-B
Wed 01:46:50 AM 47.3770 -56.3460 66° East 606 697 33,000  Level FlightAware ADS-B
Wed 01:47:35 AM 47.4270 -56.1760 66° East 608 700 33,000  Level FlightAware ADS-B
Wed 01:48:15 AM 47.4700 -56.0270 67° East 610 702 33,000  Level FlightAware ADS-B
Wed 01:49:00 AM 47.5210 -55.8480 67° East 611 703 33,000  Level FlightAware ADS-B
Wed 01:50:06 AM 47.5870 -55.6190 67° East 612 704 33,000  Level FlightAware ADS-B
Wed 01:50:49 AM 47.6280 -55.4780 67° East 612 704 33,000  Level FlightAware ADS-B
Wed 01:51:34 AM 47.6920 -55.2510 67° East 611 703 33,000 565 Level FlightAware ADS-B
Wed 01:52:14 AM 47.7360 -55.0930 67° East 609 701 33,800 732 Climbing FlightAware ADS-B
Wed 01:52:56 AM 47.7810 -54.9320 67° East 611 703 34,000 140 Climbing FlightAware ADS-B
Wed 01:53:40 AM 47.8280 -54.7590 68° East 610 702 34,000  Level FlightAware ADS-B
Wed 01:54:20 AM 47.8710 -54.6030 68° East 608 700 34,000  Level FlightAware ADS-B
Wed 01:55:00 AM 47.9130 -54.4480 68° East 609 701 34,000  Level FlightAware ADS-B
Wed 01:56:43 AM 48.0200 -54.0480 68° East 610 702 34,000  Level FlightAware ADS-B
Wed 01:57:23 AM 48.0620 -53.8910 68° East 612 704 34,000  Level FlightAware ADS-B
Wed 01:58:08 AM 48.1080 -53.7150 69° East 611 703 34,000  Level FlightAware ADS-B
Wed 01:58:47 AM 48.1480 -53.5610 69° East 611 703 34,000  Level FlightAware ADS-B
Wed 01:59:31 AM 48.1940 -53.3850 69° East 610 702 34,000  Level FlightAware ADS-B
Wed 02:00:07 AM 48.2310 -53.2430 69° East 610 702 34,000  Level FlightAware ADS-B
Wed 02:01:49 AM 48.3150 -52.9120 69° East 608 700 34,000  Level FlightAware ADS-B
Wed 02:02:33 AM 48.3770 -52.6700 69° East 610 702 34,000  Level FlightAware ADS-B
Wed 02:03:15 AM 48.4190 -52.5020 69° East 612 704 34,000  Level FlightAware ADS-B
Wed 02:04:25 AM 48.4850 -52.2350 69° East 613 705 34,000  Level FlightAware ADS-B
Wed 02:05:07 AM 48.5300 -52.0530 69° East 615 708 34,000  Level FlightAware ADS-B
Wed 02:06:33 AM 48.6140 -51.7060 70° East 614 707 34,000  Level FlightAware ADS-B
Wed 02:07:13 AM 48.6510 -51.5480 70° East 613 705 34,000  Level FlightAware ADS-B
Wed 02:07:51 AM 48.6840 -51.4110 70° East 612 704 34,000  Level FlightAware ADS-B
Wed 02:08:36 AM 48.7280 -51.2270 70° East 610 702 34,000  Level FlightAware ADS-B
Wed 02:09:33 AM 48.7810 -51.0000 70° East 607 699 34,000  Level FlightAware ADS-B
Wed 02:10:15 AM 48.8210 -50.8260 71° East 602 693 34,000  Level FlightAware ADS-B
Wed 02:12:11 AM 48.9170 -50.4200 70° East 601 692 34,000  Level FlightAware ADS-B
Wed 02:12:59 AM 48.9560 -50.2580 70° East 601 692 34,000  Level FlightAware ADS-B
Wed 02:13:35 AM 48.9850 -50.1360 70° East 601 692 34,000  Level FlightAware ADS-B
Wed 02:14:23 AM 49.0240 -49.9730 70° East 601 692 34,000  Level FlightAware ADS-B
Wed 02:14:59 AM 49.0530 -49.8520 70° East 601 692 34,000  Level FlightAware ADS-B
Wed 02:16:48 AM 49.1410 -49.4820 70° East 601 692 34,000  Level FlightAware ADS-B
Wed 02:17:25 AM 49.1710 -49.3560 70° East 601 692 34,000  Level FlightAware ADS-B
Wed 02:18:13 AM 49.2090 -49.1930 70° East 601 692 34,000  Level FlightAware ADS-B
Wed 02:18:49 AM 49.2380 -49.0700 70° East 601 692 34,000  Level FlightAware ADS-B
Wed 02:19:37 AM 49.2770 -48.9070 70° East 601 692 34,000  Level FlightAware ADS-B
Wed 02:20:00 AM 49.0000 -50.0000 77° East 562 647 34,000  Level ETMS Enhanced Traffic Management System
Wed 02:20:17 AM 49.3100 -48.7710 70° East 601 692 34,000  Level FlightAware ADS-B
Wed 02:20:47 AM 49.2167 -48.2167 77° East 590 679 34,000  Level Gander Center
Wed 02:21:47 AM 49.2500 -48.0000 77° East 590 679 34,000  Level Gander Center
Wed 02:22:21 AM 49.2667 -47.8667 79° East 580 667 34,000  Level Gander Center
Wed 02:23:21 AM 49.3000 -47.6000 79° East 580 667 34,000  Level Gander Center
Wed 02:24:21 AM 49.3167 -47.3833 83° East 570 656 34,000  Level Gander Center
Wed 02:26:00 AM 49.3620 -47.0184 79° East  Level FlightAware Approximate
Wed 02:33:00 AM 49.5417 -45.4631 79° East  Level FlightAware Approximate
Wed 02:34:00 AM 49.5656 -45.2400 81° East  Level FlightAware Approximate
Wed 02:35:00 AM 49.5891 -45.0167 81° East  Level FlightAware Approximate
Wed 02:36:00 AM 49.6122 -44.7931 81° East  Level FlightAware Approximate
Wed 02:37:00 AM 49.6349 -44.5694 81° East  Level FlightAware Approximate
Wed 02:38:00 AM 49.6571 -44.3454 81° East  Level FlightAware Approximate
Wed 02:39:00 AM 49.6789 -44.1213 81° East  Level FlightAware Approximate
Wed 02:40:00 AM 49.7003 -43.8969 82° East  Level FlightAware Approximate
Wed 02:41:00 AM 49.7212 -43.6724 82° East  Level FlightAware Approximate
Wed 02:42:00 AM 49.7417 -43.4477 82° East  Level FlightAware Approximate
Wed 02:43:00 AM 49.7618 -43.2227 82° East  Level FlightAware Approximate
Wed 02:44:00 AM 49.7814 -42.9976 82° East  Level FlightAware Approximate
Wed 02:45:00 AM 49.8006 -42.7723 82° East  Level FlightAware Approximate
Wed 02:46:00 AM 49.8193 -42.5468 83° East  Level FlightAware Approximate
Wed 02:47:00 AM 49.8377 -42.3212 83° East  Level FlightAware Approximate
Wed 02:48:00 AM 49.8555 -42.0954 83° East  Level FlightAware Approximate
Wed 02:49:00 AM 49.8730 -41.8694 83° East  Level FlightAware Approximate
Wed 02:50:00 AM 49.8900 -41.6433 83° East  Level FlightAware Approximate
Wed 02:51:00 AM 49.9065 -41.4170 83° East  Level FlightAware Approximate
Wed 02:52:00 AM 49.9227 -41.1906 84° East  Level FlightAware Approximate
Wed 02:53:00 AM 49.9383 -40.9640 84° East  Level FlightAware Approximate
Wed 02:54:00 AM 49.9536 -40.7372 84° East  Level FlightAware Approximate
Wed 02:55:00 AM 49.9684 -40.5103 84° East  Level FlightAware Approximate
Wed 02:56:00 AM 49.9827 -40.2833 84° East  Level FlightAware Approximate
Wed 02:57:00 AM 49.9966 -40.0562 84° East  Level FlightAware Approximate
Wed 02:58:00 AM 50.0235 -39.8319 78° East  Level FlightAware Approximate
Wed 02:58:00 AM 50.0000 -40.0000 77° East 551 634 34,000  Level ETMS Enhanced Traffic Management System
Wed 02:59:00 AM 50.0544 -39.6086 78° East  Level FlightAware Approximate
Wed 03:00:00 AM 50.0849 -39.3851 78° East  Level FlightAware Approximate
Wed 03:01:00 AM 50.1149 -39.1612 78° East  Level FlightAware Approximate
Wed 03:02:00 AM 50.1445 -38.9370 78° East  Level FlightAware Approximate
Wed 03:03:00 AM 50.1739 -38.7127 78° East  Level FlightAware Approximate
Wed 03:04:00 AM 50.2859 -37.8955 79° East 551 634 34,000  Level FlightAware Transoceanic
Wed 03:05:00 AM 50.3153 -37.6601 79° East 551 634 34,000  Level FlightAware Transoceanic
Wed 03:06:00 AM 50.3442 -37.4245 79° East 551 634 34,000  Level FlightAware Transoceanic
Wed 03:07:00 AM 50.3727 -37.1885 79° East 551 634 34,000  Level FlightAware Transoceanic
Wed 03:08:00 AM 50.4007 -36.9523 80° East 551 634 34,000  Level FlightAware Transoceanic
Wed 03:09:00 AM 50.4282 -36.7159 80° East 551 634 34,000  Level FlightAware Transoceanic
Wed 03:10:00 AM 50.4552 -36.4791 80° East 551 634 34,000  Level FlightAware Transoceanic
Wed 03:11:00 AM 50.4817 -36.2421 80° East 551 634 34,000  Level FlightAware Transoceanic
Wed 03:12:00 AM 50.5078 -36.0048 80° East 551 634 34,000  Level FlightAware Transoceanic
Wed 03:13:00 AM 50.5334 -35.7672 80° East 551 634 34,000  Level FlightAware Transoceanic
Wed 03:14:00 AM 50.5584 -35.5294 81° East 551 634 34,000  Level FlightAware Transoceanic
Wed 03:15:00 AM 50.5830 -35.2914 81° East 551 634 34,000  Level FlightAware Transoceanic
Wed 03:16:00 AM 50.6072 -35.0531 81° East 551 634 34,000  Level FlightAware Transoceanic
Wed 03:17:00 AM 50.6308 -34.8145 81° East 551 634 34,000  Level FlightAware Transoceanic
Wed 03:18:00 AM 50.6539 -34.5757 81° East 551 634 34,000  Level FlightAware Transoceanic
Wed 03:19:00 AM 50.6766 -34.3367 82° East 551 634 34,000  Level FlightAware Transoceanic
Wed 03:20:00 AM 50.6988 -34.0975 82° East 551 634 34,000  Level FlightAware Transoceanic
Wed 03:21:00 AM 50.7204 -33.8580 82° East 551 634 34,000  Level FlightAware Transoceanic
Wed 03:22:00 AM 50.7416 -33.6183 82° East 551 634 34,000  Level FlightAware Transoceanic
Wed 03:23:00 AM 50.7623 -33.3784 82° East 551 634 34,000  Level FlightAware Transoceanic
Wed 03:24:00 AM 50.7825 -33.1383 83° East 551 634 34,000  Level FlightAware Transoceanic
Wed 03:25:00 AM 50.8022 -32.8980 83° East 551 634 34,000  Level FlightAware Transoceanic
Wed 03:26:00 AM 50.8214 -32.6575 83° East 551 634 34,000  Level FlightAware Transoceanic
Wed 03:27:00 AM 50.8402 -32.4168 83° East 551 634 34,000  Level FlightAware Transoceanic
Wed 03:28:00 AM 50.8584 -32.1759 83° East 551 634 34,000  Level FlightAware Transoceanic
Wed 03:29:00 AM 50.8761 -31.9348 83° East 551 634 34,000  Level FlightAware Transoceanic
Wed 03:30:00 AM 50.8933 -31.6935 84° East 551 634 34,000  Level FlightAware Transoceanic
Wed 03:31:00 AM 50.9101 -31.4521 84° East 551 634 34,000  Level FlightAware Transoceanic
Wed 03:32:00 AM 50.9263 -31.2105 84° East 551 634 34,000  Level FlightAware Transoceanic
Wed 03:33:00 AM 50.9421 -30.9687 84° East 551 634 34,000  Level FlightAware Transoceanic
Wed 03:34:00 AM 50.9573 -30.7267 84° East 551 634 34,000  Level FlightAware Transoceanic
Wed 03:35:00 AM 50.9720 -30.4846 85° East 551 634 34,000  Level FlightAware Transoceanic
Wed 03:36:00 AM 50.9863 -30.2424 85° East 551 634 34,000  Level FlightAware Transoceanic
Wed 03:37:00 AM 50.9994 -30.0103 85° East  Level FlightAware Approximate
Wed 03:38:00 AM 51.0121 -29.7780 85° East  Level FlightAware Approximate
Wed 03:39:00 AM 51.0066 -29.7877 87° East  Level FlightAware Approximate
Wed 03:40:00 AM 51.0134 -29.5548 87° East  Level FlightAware Approximate
Wed 03:41:00 AM 51.0197 -29.3218 87° East  Level FlightAware Approximate
Wed 03:42:00 AM 51.0256 -29.0888 88° East  Level FlightAware Approximate
Wed 03:43:00 AM 51.0310 -28.8557 88° East  Level FlightAware Approximate
Wed 03:43:00 AM 51.0000 -30.0000 86° East 565 650 34,000  Level ETMS Enhanced Traffic Management System
Wed 03:44:00 AM 51.0375 -28.6227 87° East  Level FlightAware Approximate
Wed 03:45:00 AM 51.0447 -28.3959 87° East  Level FlightAware Approximate
Wed 03:46:00 AM 51.0514 -28.1692 87° East  Level FlightAware Approximate
Wed 03:47:00 AM 51.0577 -27.9423 87° East  Level FlightAware Approximate
Wed 03:48:00 AM 51.0635 -27.7154 88° East  Level FlightAware Approximate
Wed 03:49:00 AM 51.0689 -27.4884 88° East  Level FlightAware Approximate
Wed 03:50:00 AM 51.0937 -26.7524 89° East 565 650 34,000  Level FlightAware Transoceanic
Wed 03:51:00 AM 51.0972 -26.5021 89° East 565 650 34,000  Level FlightAware Transoceanic
Wed 03:52:00 AM 51.1001 -26.2518 89° East 565 650 34,000  Level FlightAware Transoceanic
Wed 03:53:00 AM 51.1025 -26.0015 89° East 565 650 34,000  Level FlightAware Transoceanic
Wed 03:54:00 AM 51.1044 -25.7511 89° East 565 650 34,000  Level FlightAware Transoceanic
Wed 03:55:00 AM 51.1057 -25.5008 90° East 565 650 34,000  Level FlightAware Transoceanic
Wed 03:56:00 AM 51.1065 -25.2504 90° East 565 650 34,000  Level FlightAware Transoceanic
Wed 03:57:00 AM 51.1068 -25.0000 90° East 565 650 34,000  Level FlightAware Transoceanic
Wed 03:58:00 AM 51.1065 -24.7496 90° East 565 650 34,000  Level FlightAware Transoceanic
Wed 03:59:00 AM 51.1057 -24.4992 90° East 565 650 34,000  Level FlightAware Transoceanic
Wed 04:00:00 AM 51.1044 -24.2489 91° East 565 650 34,000  Level FlightAware Transoceanic
Wed 04:01:00 AM 51.1025 -23.9985 91° East 565 650 34,000  Level FlightAware Transoceanic
Wed 04:02:00 AM 51.1001 -23.7482 91° East 565 650 34,000  Level FlightAware Transoceanic
Wed 04:03:00 AM 51.0972 -23.4979 91° East 565 650 34,000  Level FlightAware Transoceanic
Wed 04:04:00 AM 51.0937 -23.2476 91° East 565 650 34,000  Level FlightAware Transoceanic
Wed 04:05:00 AM 51.0897 -22.9974 92° East 565 650 34,000  Level FlightAware Transoceanic
Wed 04:06:00 AM 51.0851 -22.7472 92° East 565 650 34,000  Level FlightAware Transoceanic
Wed 04:07:00 AM 51.0801 -22.4971 92° East 565 650 34,000  Level FlightAware Transoceanic
Wed 04:08:00 AM 51.0745 -22.2470 92° East 565 650 34,000  Level FlightAware Transoceanic
Wed 04:09:00 AM 51.0683 -21.9970 92° East 565 650 34,000  Level FlightAware Transoceanic
Wed 04:10:00 AM 51.0616 -21.7471 93° East 565 650 34,000  Level FlightAware Transoceanic
Wed 04:11:00 AM 51.0544 -21.4973 93° East 565 650 34,000  Level FlightAware Transoceanic
Wed 04:12:00 AM 51.0467 -21.2475 93° East 565 650 34,000  Level FlightAware Transoceanic
Wed 04:13:00 AM 51.0384 -20.9978 93° East 565 650 34,000  Level FlightAware Transoceanic
Wed 04:14:00 AM 51.0296 -20.7482 93° East 565 650 34,000  Level FlightAware Transoceanic
Wed 04:15:00 AM 51.0203 -20.4987 94° East 565 650 34,000  Level FlightAware Transoceanic
Wed 04:16:00 AM 51.0104 -20.2493 94° East 565 650 34,000 20 Level FlightAware Transoceanic
Wed 04:17:00 AM 51.0010 -20.0230 94° East  Level FlightAware Approximate
Wed 04:18:00 AM 50.9911 -19.7967 94° East  Level FlightAware Approximate
Wed 04:19:00 AM 50.9802 -19.8220 100° East  Level FlightAware Approximate
Wed 04:20:00 AM 50.9551 -19.5989 100° East  Level FlightAware Approximate
Wed 04:21:00 AM 50.9294 -19.3761 100° East  Level FlightAware Approximate
Wed 04:22:00 AM 50.9034 -19.1535 100° East  Level FlightAware Approximate
Wed 04:23:00 AM 50.8769 -18.9312 101° East  Level FlightAware Approximate
Wed 04:24:00 AM 50.8501 -18.7091 101° East  Level FlightAware Approximate
Wed 04:25:00 AM 50.8228 -18.4872 101° East  Level FlightAware Approximate
Wed 04:26:00 AM 50.7951 -18.2657 101° East  Level FlightAware Approximate
Wed 04:27:00 AM 50.7669 -18.0444 101° East  Level FlightAware Approximate
Wed 04:28:00 AM 50.7384 -17.8233 101° East  Level FlightAware Approximate
Wed 04:29:00 AM 50.7094 -17.6026 102° East  Level FlightAware Approximate
Wed 04:30:00 AM 50.6800 -17.3821 102° East  Level FlightAware Approximate
Wed 04:31:00 AM 50.6502 -17.1618 102° East  Level FlightAware Approximate
Wed 04:32:00 AM 50.6200 -16.9419 102° East  Level FlightAware Approximate
Wed 04:33:00 AM 50.5894 -16.7223 102° East  Level FlightAware Approximate
Wed 04:34:00 AM 50.5583 -16.5029 102° East  Level FlightAware Approximate
Wed 04:35:00 AM 50.5268 -16.2838 103° East  Level FlightAware Approximate
Wed 04:36:00 AM 50.4950 -16.0651 103° East  Level FlightAware Approximate
Wed 04:37:00 AM 50.4627 -15.8466 103° East  Level FlightAware Approximate
Wed 04:38:00 AM 50.4300 -15.6284 103° East  Level FlightAware Approximate
Wed 04:39:00 AM 50.3969 -15.4105 103° East  Level FlightAware Approximate
Wed 04:40:00 AM 50.3634 -15.1930 103° East  Level FlightAware Approximate
Wed 04:41:00 AM 50.3295 -14.9757 104° East  Level FlightAware Approximate
Wed 04:42:00 AM 50.2948 -14.7589 104° East  Level FlightAware Approximate
Wed 04:43:00 AM 50.2597 -14.5424 104° East  Level FlightAware Approximate
Wed 04:44:00 AM 50.2243 -14.3263 104° East  Level FlightAware Approximate
Wed 04:45:00 AM 50.1884 -14.1104 104° East  Level FlightAware Approximate
Wed 04:46:00 AM 50.1521 -13.8949 105° East  Level FlightAware Approximate
Wed 04:47:00 AM 50.1155 -13.6797 105° East  Level FlightAware Approximate
Wed 04:48:00 AM 50.0784 -13.4648 105° East  Level FlightAware Approximate
Wed 04:49:00 AM 50.0409 -13.2503 105° East  Level FlightAware Approximate
Wed 04:50:00 AM 50.0031 -13.0361 105° East  Level FlightAware Approximate
Wed 04:51:00 AM 49.9648 -12.8223 105° East  Level FlightAware Approximate
Wed 04:52:00 AM 49.9262 -12.6088 106° East  Level FlightAware Approximate
Wed 04:53:00 AM 49.8871 -12.3956 106° East  Level FlightAware Approximate
Wed 04:54:00 AM 49.8477 -12.1828 106° East  Level FlightAware Approximate
Wed 04:55:00 AM 49.8079 -11.9703 106° East  Level FlightAware Approximate
Wed 04:56:00 AM 49.7677 -11.7582 106° East  Level FlightAware Approximate
Wed 04:57:00 AM 49.7271 -11.5464 106° East  Level FlightAware Approximate
Wed 04:58:00 AM 49.6861 -11.3350 107° East  Level FlightAware Approximate
Wed 04:59:00 AM 49.6447 -11.1239 107° East  Level FlightAware Approximate
Wed 05:00:00 AM 49.6030 -10.9132 107° East  Level FlightAware Approximate
Wed 05:01:00 AM 49.5609 -10.7029 107° East  Level FlightAware Approximate
Wed 05:02:00 AM 49.5189 -10.4927 107° East  Level FlightAware Approximate
Wed 05:03:00 AM 49.4776 -10.2823 107° East  Level FlightAware Approximate
Wed 05:04:00 AM 49.4359 -10.0723 107° East  Level FlightAware Approximate
Wed 05:04:56 AM 49.7124 -9.0018 107° East 492 566 35,000  Level FlightAware UK
Wed 05:05:00 AM 49.3938 -9.8627 107° East  Level FlightAware Approximate
Wed 05:05:26 AM 49.6853 -8.8957 112° Southeast 492 566 35,000  Level FlightAware UK
Wed 05:05:56 AM 49.6579 -8.7897 112° Southeast 490 564 35,000  Level FlightAware UK
Wed 05:06:26 AM 49.6306 -8.6837 112° Southeast 492 566 35,000  Level FlightAware UK
Wed 05:06:56 AM 49.6030 -8.5781 112° Southeast 492 566 35,000  Level FlightAware UK
Wed 05:06:56 AM 49.6030 -8.5410 112° Southeast 530 610 35,000  Level FlightAware ADS-B
Wed 05:07:26 AM 49.5753 -8.4727 112° Southeast 1 1 35,000  Level FlightAware UK
Wed 05:07:41 AM 49.5610 -8.3830 112° Southeast 529 609 35,000  Level FlightAware ADS-B
Wed 05:08:22 AM 49.5280 -8.2590 112° Southeast 527 606 35,000  Level FlightAware ADS-B
Wed 05:08:56 AM 49.4921 -8.1585 112° Southeast 490 564 35,000  Level FlightAware UK
Wed 05:09:17 AM 49.4740 -8.0580 112° Southeast 528 608 35,000 600 Level FlightAware ADS-B
Wed 05:09:56 AM 49.4360 -7.9494 112° Southeast 500 575 35,600 1,000 Climbing FlightAware UK
Wed 05:09:59 AM 49.4340 -7.9090 112° Southeast 530 610 35,700 1,773 Climbing FlightAware ADS-B
Wed 05:10:40 AM 49.3970 -7.7710 112° Southeast 519 597 36,900 897 Climbing FlightAware ADS-B
Wed 05:11:26 AM 49.3526 -7.6414 112° Southeast 504 580 37,000 98 Climbing FlightAware UK
Wed 05:11:41 AM 49.3380 -7.5580 112° Southeast 513 590 37,000  Level FlightAware ADS-B
Wed 05:12:26 AM 49.2985 -7.4440 112° Southeast 492 566 37,000  Level FlightAware UK
Wed 05:12:26 AM 49.2980 -7.4120 112° Southeast 503 579 37,000  Level FlightAware ADS-B
Wed 05:12:56 AM 49.2715 -7.3466 112° Southeast 490 564 37,000  Level FlightAware UK
Wed 05:13:06 AM 49.2610 -7.2790 112° Southeast 499 574 37,000  Level FlightAware ADS-B
Wed 05:13:46 AM 49.2150 -7.1530 119° Southeast 497 572 37,000  Level FlightAware ADS-B
Wed 05:14:26 AM 49.1712 -7.0711 119° Southeast 496 571 37,000  Level FlightAware UK
Wed 05:14:26 AM 49.1700 -7.0340 119° Southeast 496 571 37,000  Level FlightAware ADS-B
Wed 05:14:56 AM 49.1368 -6.9804 119° Southeast 492 566 37,000  Level FlightAware UK
Wed 05:15:11 AM 49.1180 -6.8970 119° Southeast 493 567 37,000  Level FlightAware ADS-B
Wed 05:15:52 AM 49.0690 -6.7700 120° Southeast 492 566 37,000  Level FlightAware ADS-B
Wed 05:16:27 AM 49.0334 -6.7101 120° Southeast 484 557 37,000  Level FlightAware UK
Wed 05:16:38 AM 49.0180 -6.6380 120° Southeast 493 567 37,000  Level FlightAware ADS-B
Wed 05:17:20 AM 48.9690 -6.5090 120° Southeast 494 568 37,000  Level FlightAware ADS-B
Wed 05:17:57 AM 48.9296 -6.4422 120° Southeast 482 555 37,000  Level FlightAware UK
Wed 05:18:00 AM 48.9220 -6.3890 120° Southeast 493 567 37,000  Level FlightAware ADS-B
Wed 05:18:42 AM 48.8730 -6.2630 121° Southeast 494 568 37,000  Level FlightAware ADS-B
Wed 05:19:22 AM 48.8270 -6.1450 121° Southeast 494 568 37,000  Level FlightAware ADS-B
Wed 05:20:06 AM 48.7770 -6.0150 120° Southeast 494 568 37,000  Level FlightAware ADS-B
Wed 05:20:39 AM 48.7411 -5.9600 120° Southeast 486 559 37,000  Level FlightAware UK
Wed 05:20:48 AM 48.7270 -5.8890 120° Southeast 495 570 37,000  Level FlightAware ADS-B
Wed 05:21:32 AM 48.6760 -5.7600 121° Southeast 494 568 37,000  Level FlightAware ADS-B
Wed 05:22:12 AM 48.6270 -5.6380 121° Southeast 491 565 37,000  Level FlightAware ADS-B
Wed 05:22:45 AM 48.5924 -5.5876 121° Southeast 492 566 37,000  Level FlightAware UK
Wed 05:22:54 AM 48.5800 -5.5200 121° Southeast 489 563 37,000  Level FlightAware ADS-B
Wed 05:23:27 AM 48.5433 -5.4651 121° Southeast 488 562 37,000  Level FlightAware UK
Wed 05:23:36 AM 48.5300 -5.3950 121° Southeast 487 560 37,000  Level FlightAware ADS-B
Wed 05:24:18 AM 48.4800 -5.2710 121° Southeast 485 558 37,000  Level FlightAware ADS-B
Wed 05:24:57 AM 48.4388 -5.2072 121° Southeast 482 555 37,000  Level FlightAware UK
Wed 05:25:03 AM 48.4290 -5.1450 121° Southeast 486 559 37,000  Level FlightAware ADS-B
Wed 05:25:54 AM 48.3700 -5.0010 122° Southeast 486 559 37,000  Level FlightAware ADS-B
Wed 05:26:33 AM 48.3240 -4.8870 121° Southeast 483 556 37,000  Level FlightAware ADS-B
Wed 05:27:15 AM 48.2763 -4.8120 121° Southeast 500 575 37,000  Level FlightAware UK
Wed 05:27:22 AM 48.2660 -4.7470 121° Southeast 468 539 37,000  Level FlightAware ADS-B
Wed 05:27:57 AM 48.2290 -4.6974 121° Southeast 486 559 37,000  Level FlightAware UK
Wed 05:28:04 AM 48.2190 -4.6310 121° Southeast 465 535 37,000  Level FlightAware ADS-B
Wed 05:28:44 AM 48.1730 -4.5200 122° Southeast 465 535 37,000  Level FlightAware ADS-B
Wed 05:29:26 AM 48.1270 -4.4070 121° Southeast 466 536 37,000  Level FlightAware ADS-B
Wed 05:30:24 AM 48.0620 -4.2450 121° Southeast 470 541 37,000  Level FlightAware ADS-B
Wed 05:31:07 AM 48.0140 -4.1270 121° Southeast 473 544 37,000  Level FlightAware ADS-B
Wed 05:31:44 AM 47.9710 -4.0210 121° Southeast 475 547 37,000  Level FlightAware ADS-B
Wed 05:32:28 AM 47.9220 -3.9010 121° Southeast 475 547 37,000  Level FlightAware ADS-B
Wed 05:33:08 AM 47.8760 -3.7850 121° Southeast 475 547 37,000  Level FlightAware ADS-B
Wed 05:33:52 AM 47.8260 -3.6640 122° Southeast 474 545 37,000  Level FlightAware ADS-B
Wed 05:34:36 AM 47.7760 -3.5430 122° Southeast 473 544 37,000  Level FlightAware ADS-B
Wed 05:35:10 AM 47.7370 -3.4480 121° Southeast 470 541 37,000  Level FlightAware ADS-B
Wed 05:35:59 AM 47.6820 -3.3150 122° Southeast 468 539 37,000  Level FlightAware ADS-B
Wed 05:36:38 AM 47.6400 -3.2110 121° Southeast 467 537 37,000 -71 Level FlightAware ADS-B
Wed 05:37:24 AM 47.5870 -3.0790 121° Southeast 463 533 36,900 -477 Descending FlightAware ADS-B
Wed 05:38:06 AM 47.5420 -2.9670 121° Southeast 458 527 36,300 -732 Descending FlightAware ADS-B
Wed 05:38:46 AM 47.5000 -2.8640 121° Southeast 448 516 35,900 -714 Descending FlightAware ADS-B
Wed 05:39:30 AM 47.4510 -2.7460 122° Southeast 440 506 35,300 -643 Descending FlightAware ADS-B
Wed 05:40:10 AM 47.4090 -2.6450 122° Southeast 433 498 35,000 -225 Descending FlightAware ADS-B
Wed 05:40:50 AM 47.3670 -2.5450 122° Southeast 434 499 35,000  Level FlightAware ADS-B
Wed 05:41:34 AM 47.3220 -2.4390 122° Southeast 431 496 35,000  Level FlightAware ADS-B
Wed 05:42:16 AM 47.2760 -2.3280 121° Southeast 429 494 35,000  Level FlightAware ADS-B
Wed 05:43:00 AM 47.2310 -2.2220 122° Southeast 426 490 35,000  Level FlightAware ADS-B
Wed 05:43:40 AM 47.1880 -2.1210 122° Southeast 424 488 35,000  Level FlightAware ADS-B
Wed 05:44:24 AM 47.1450 -2.0140 121° Southeast 423 487 35,000  Level FlightAware ADS-B
Wed 05:45:06 AM 47.1100 -1.9060 115° Southeast 421 484 35,000  Level FlightAware ADS-B
Wed 05:45:48 AM 47.0740 -1.7970 116° Southeast 420 483 35,000  Level FlightAware ADS-B
Wed 05:46:25 AM 47.0430 -1.7080 117° Southeast 417 480 35,000  Level FlightAware ADS-B
Wed 05:47:11 AM 47.0030 -1.5870 116° Southeast 415 478 35,000  Level FlightAware ADS-B
Wed 05:47:55 AM 46.9680 -1.4770 115° Southeast 412 474 35,000  Level FlightAware ADS-B
Wed 05:48:35 AM 46.9350 -1.3760 116° Southeast 407 468 35,000  Level FlightAware ADS-B
Wed 05:49:19 AM 46.8990 -1.2660 116° Southeast 404 465 35,000  Level FlightAware ADS-B
Wed 05:49:59 AM 46.8670 -1.1690 116° Southeast 402 463 35,000  Level FlightAware ADS-B
Wed 05:50:35 AM 46.8380 -1.0790 115° Southeast 402 463 35,000  Level FlightAware ADS-B
Wed 05:51:23 AM 46.7990 -0.9640 116° Southeast 403 464 35,000  Level FlightAware ADS-B
Wed 05:52:05 AM 46.7640 -0.8600 116° Southeast 401 461 35,000  Level FlightAware ADS-B
Wed 05:52:45 AM 46.7330 -0.7660 116° Southeast 400 460 35,000  Level FlightAware ADS-B
Wed 05:53:27 AM 46.6970 -0.6600 116° Southeast 402 463 35,000  Level FlightAware ADS-B
Wed 05:54:09 AM 46.6640 -0.5630 116° Southeast 405 466 35,000  Level FlightAware ADS-B
Wed 05:55:09 AM 46.6160 -0.4240 117° Southeast 406 467 35,000  Level FlightAware ADS-B
Wed 05:55:49 AM 46.5820 -0.3210 116° Southeast 408 470 35,000  Level FlightAware ADS-B
Wed 05:56:29 AM 46.5480 -0.2210 116° Southeast 409 471 35,000  Level FlightAware ADS-B
Wed 05:57:14 AM 46.5170 -0.1270 116° Southeast 407 468 35,000  Level FlightAware ADS-B
Wed 05:58:22 AM 46.4580 0.0530 115° Southeast 404 465 35,000  Level FlightAware ADS-B
Wed 05:59:42 AM 46.3910 0.2550 116° Southeast 412 474 35,000  Level FlightAware ADS-B
Wed 06:00:54 AM 46.3450 0.4140 113° Southeast 414 476 35,000  Level FlightAware ADS-B
Wed 06:01:33 AM 46.3070 0.5390 114° Southeast 413 475 35,000  Level FlightAware ADS-B
Wed 06:02:33 AM 46.2620 0.6890 113° Southeast 414 476 35,000  Level FlightAware ADS-B
Wed 06:03:11 AM 46.2350 0.7790 113° Southeast 415 478 35,000  Level FlightAware ADS-B
Wed 06:04:16 AM 46.1990 0.9420 108° East 418 481 35,000  Level FlightAware ADS-B
Wed 06:04:48 AM 46.1850 1.0320 103° East 419 482 35,000  Level FlightAware ADS-B
Wed 06:05:40 AM 46.1680 1.1530 101° East 419 482 35,000  Level FlightAware ADS-B
Wed 06:06:18 AM 46.1550 1.2410 102° East 419 482 35,000  Level FlightAware ADS-B
Wed 06:06:56 AM 46.1410 1.3300 103° East 419 482 35,000  Level FlightAware ADS-B
Wed 06:07:45 AM 46.1250 1.4440 101° East 419 482 35,000  Level FlightAware ADS-B
Wed 06:08:21 AM 46.1120 1.5270 103° East 419 482 35,000  Level FlightAware ADS-B
Wed 06:09:03 AM 45.9780 1.6940 139° Southeast 415 478 35,000  Level FlightAware ADS-B
Wed 06:09:44 AM 45.9450 1.7930 116° Southeast 419 482 35,000  Level FlightAware ADS-B
Wed 06:10:32 AM 45.9060 1.9110 115° Southeast 419 482 35,000  Level FlightAware ADS-B
Wed 06:11:40 AM 45.8600 2.0470 116° Southeast 419 482 35,000  Level FlightAware ADS-B
Wed 06:12:26 AM 45.8080 2.2010 116° Southeast 421 484 35,000  Level FlightAware ADS-B
Wed 06:13:03 AM 45.7760 2.2960 116° Southeast 421 484 35,000  Level FlightAware ADS-B
Wed 06:13:49 AM 45.7370 2.4100 116° Southeast 422 486 35,000  Level FlightAware ADS-B
Wed 06:14:32 AM 45.7000 2.5170 116° Southeast 422 486 35,000  Level FlightAware ADS-B
Wed 06:15:12 AM 45.6660 2.6150 116° Southeast 421 484 35,000  Level FlightAware ADS-B
Wed 06:15:53 AM 45.6290 2.7220 116° Southeast 422 486 35,000  Level FlightAware ADS-B
Wed 06:16:46 AM 45.5890 2.8390 116° Southeast 423 487 35,000  Level FlightAware ADS-B
Wed 06:17:55 AM 45.5280 3.0130 117° Southeast 424 488 35,000  Level FlightAware ADS-B
Wed 06:18:43 AM 45.4860 3.1330 116° Southeast 429 494 35,000  Level FlightAware ADS-B
Wed 06:19:14 AM 45.4790 3.1510 119° Southeast 429 494 35,000  Level FlightAware ADS-B
Wed 06:19:52 AM 45.4510 3.2330 116° Southeast 429 494 35,000  Level FlightAware ADS-B
Wed 06:20:19 AM 45.4000 3.3750 117° Southeast 35,000  Level FlightAware ADS-B
Wed 06:21:47 AM 45.3160 3.6110 117° Southeast 431 496 35,000  Level FlightAware ADS-B
Wed 06:22:30 AM 45.2770 3.7190 117° Southeast 432 497 35,000  Level FlightAware ADS-B
Wed 06:23:06 AM 45.2430 3.8100 118° Southeast 435 501 35,000  Level FlightAware ADS-B
Wed 06:23:47 AM 45.2060 3.8900 123° Southeast 433 498 35,000  Level FlightAware ADS-B
Wed 06:24:29 AM 45.1580 3.9930 123° Southeast 436 502 35,000  Level FlightAware ADS-B
Wed 06:25:52 AM 45.0740 4.1760 123° Southeast 438 504 35,000  Level FlightAware ADS-B
Wed 06:26:25 AM 45.0370 4.2560 123° Southeast 447 514 35,000  Level FlightAware ADS-B
Wed 06:27:08 AM 44.9800 4.3770 124° Southeast 449 517 35,000  Level FlightAware ADS-B
Wed 06:28:09 AM 44.9110 4.5270 123° Southeast 450 518 35,000  Level FlightAware ADS-B
Wed 06:29:01 AM 44.8430 4.6700 124° Southeast 449 517 35,000  Level FlightAware ADS-B
Wed 06:29:46 AM 44.7930 4.7770 123° Southeast 448 516 35,000  Level FlightAware ADS-B
Wed 06:30:31 AM 44.7400 4.8900 123° Southeast 448 516 35,000  Level FlightAware ADS-B
Wed 06:31:11 AM 44.6930 4.9880 124° Southeast 447 514 35,000  Level FlightAware ADS-B
Wed 06:31:52 AM 44.6470 5.0860 123° Southeast 449 517 35,000  Level FlightAware ADS-B
Wed 06:32:36 AM 44.5930 5.1980 124° Southeast 451 519 35,000  Level FlightAware ADS-B
Wed 06:33:11 AM 44.5520 5.2820 124° Southeast 455 524 35,000  Level FlightAware ADS-B
Wed 06:33:56 AM 44.5000 5.3910 124° Southeast 459 528 35,000  Level FlightAware ADS-B
Wed 06:34:41 AM 44.4460 5.5030 124° Southeast 459 528 35,000  Level FlightAware ADS-B
Wed 06:35:21 AM 44.3990 5.6010 124° Southeast 461 531 35,000  Level FlightAware ADS-B
Wed 06:36:03 AM 44.3500 5.7000 125° Southeast 463 533 35,000  Level FlightAware ADS-B
Wed 06:36:46 AM 44.2970 5.8090 124° Southeast 468 539 35,000  Level FlightAware ADS-B
Wed 06:37:31 AM 44.2410 5.9240 124° Southeast 465 535 35,000  Level FlightAware ADS-B
Wed 06:38:06 AM 44.1970 6.0130 125° Southeast 464 534 35,000  Level FlightAware ADS-B
Wed 06:38:51 AM 44.1460 6.1260 122° Southeast 471 542 35,000  Level FlightAware ADS-B
Wed 06:39:36 AM 44.0940 6.2450 121° Southeast 471 542 35,000  Level FlightAware ADS-B
Wed 06:40:11 AM 44.0550 6.3330 122° Southeast 469 540 35,000  Level FlightAware ADS-B
Wed 06:40:55 AM 44.0040 6.4490 121° Southeast 469 540 35,000  Level FlightAware ADS-B
Wed 06:41:40 AM 43.9520 6.5620 123° Southeast 470 541 35,000  Level FlightAware ADS-B
Wed 06:42:23 AM 43.9050 6.6660 122° Southeast 468 539 35,000  Level FlightAware ADS-B
Wed 06:43:01 AM 43.8590 6.7680 122° Southeast 474 545 35,000  Level FlightAware ADS-B
Wed 06:43:41 AM 43.8130 6.8710 122° Southeast 477 549 35,000  Level FlightAware ADS-B
Wed 06:44:26 AM 43.7580 6.9920 122° Southeast 481 554 35,000  Level FlightAware ADS-B
Wed 06:45:11 AM 43.7040 7.1090 123° Southeast 483 556 35,000  Level FlightAware ADS-B
Wed 06:45:51 AM 43.6570 7.2140 122° Southeast 484 557 35,000 353 Level FlightAware ADS-B
Wed 06:46:36 AM 43.6060 7.3210 123° Southeast 487 560 35,500 1,050 Climbing FlightAware ADS-B
Wed 06:47:11 AM 43.5600 7.4220 122° Southeast 486 559 36,400 1,111 Climbing FlightAware ADS-B
Wed 06:47:57 AM 43.5030 7.5430 123° Southeast 487 560 37,000 400 Climbing FlightAware ADS-B
Wed 06:48:41 AM 43.4490 7.6570 123° Southeast 486 559 37,000  Level FlightAware ADS-B
Wed 06:49:25 AM 43.3970 7.7710 122° Southeast 483 556 37,000  Level FlightAware ADS-B
Wed 06:50:08 AM 43.3460 7.8820 122° Southeast 481 554 37,000  Level FlightAware ADS-B
Wed 06:51:34 AM 43.2830 8.0170 123° Southeast 480 552 37,000  Level FlightAware ADS-B
Wed 06:52:11 AM 43.2000 8.1980 122° Southeast 478 550 37,000  Level FlightAware ADS-B
Wed 06:52:57 AM 43.1460 8.3160 122° Southeast 478 550 37,000  Level FlightAware ADS-B
Wed 06:53:41 AM 43.0940 8.4300 122° Southeast 478 550 37,000  Level FlightAware ADS-B
Wed 06:54:21 AM 43.0480 8.5340 121° Southeast 477 549 37,000  Level FlightAware ADS-B
Wed 06:55:03 AM 43.0010 8.6400 121° Southeast 476 548 37,000  Level FlightAware ADS-B
Wed 06:55:54 AM 42.9430 8.7700 121° Southeast 474 545 37,000  Level FlightAware ADS-B
Wed 06:56:34 AM 42.8970 8.8720 122° Southeast 470 541 37,000  Level FlightAware ADS-B
Wed 06:57:18 AM 42.8460 8.9830 122° Southeast 468 539 37,000  Level FlightAware ADS-B
Wed 06:57:57 AM 42.7990 9.0820 123° Southeast 467 537 37,000  Level FlightAware ADS-B
Wed 06:58:44 AM 42.7450 9.1960 123° Southeast 467 537 37,000  Level FlightAware ADS-B
Wed 06:59:24 AM 42.7060 9.3020 117° Southeast 470 541 37,000  Level FlightAware ADS-B
Wed 07:00:08 AM 42.6670 9.4160 115° Southeast 471 542 37,000  Level FlightAware ADS-B
Wed 07:00:47 AM 42.6320 9.5240 114° Southeast 474 545 37,000  Level FlightAware ADS-B
Wed 07:01:27 AM 42.6000 9.6330 112° Southeast 478 550 37,000  Level FlightAware ADS-B
Wed 07:02:13 AM 42.5610 9.7650 112° Southeast 479 551 37,000  Level FlightAware ADS-B
Wed 07:02:50 AM 42.5310 9.8650 112° Southeast 480 552 37,000  Level FlightAware ADS-B
Wed 07:03:38 AM 42.4890 10.0020 113° Southeast 482 555 37,000  Level FlightAware ADS-B
Wed 07:04:18 AM 42.4550 10.1140 112° Southeast 482 555 37,000  Level FlightAware ADS-B
Wed 07:05:00 AM 42.4200 10.2290 112° Southeast 482 555 37,000  Level FlightAware ADS-B
Wed 07:05:54 AM 42.3800 10.3590 113° Southeast 479 551 37,000  Level FlightAware ADS-B
Wed 07:06:37 AM 42.3370 10.4970 113° Southeast 478 550 37,000  Level FlightAware ADS-B
Wed 07:07:17 AM 42.3030 10.6080 112° Southeast 479 551 37,000  Level FlightAware ADS-B
Wed 07:07:57 AM 42.2680 10.7200 113° Southeast 480 552 37,000  Level FlightAware ADS-B
Wed 07:08:42 AM 42.2280 10.8450 113° Southeast 485 558 37,000  Level FlightAware ADS-B
Wed 07:09:22 AM 42.1930 10.9570 113° Southeast 486 559 37,000  Level FlightAware ADS-B
Wed 07:10:08 AM 42.1350 11.0650 126° Southeast 475 547 37,000  Level FlightAware ADS-B
Wed 07:10:52 AM 42.0700 11.1700 130° Southeast 477 549 37,000  Level FlightAware ADS-B
Wed 07:11:44 AM 42.0450 11.2130 128° Southeast 484 557 37,000  Level FlightAware ADS-B
Wed 07:12:28 AM 41.9460 11.3870 127° Southeast 486 559 37,000  Level FlightAware ADS-B
Wed 07:13:12 AM 41.8750 11.4990 130° Southeast 480 552 37,000  Level FlightAware ADS-B
Wed 07:13:48 AM 41.8250 11.5790 130° Southeast 480 552 37,000  Level FlightAware ADS-B
Wed 07:14:32 AM 41.7590 11.6830 130° Southeast 481 554 37,000  Level FlightAware ADS-B
Wed 07:15:13 AM 41.7010 11.7740 130° Southeast 481 554 37,000  Level FlightAware ADS-B
Wed 07:15:58 AM 41.6360 11.8780 130° Southeast 482 555 37,000  Level FlightAware ADS-B
Wed 07:16:42 AM 41.5700 11.9820 130° Southeast 483 556 37,000  Level FlightAware ADS-B
Wed 07:17:22 AM 41.5120 12.0730 130° Southeast 483 556 37,000  Level FlightAware ADS-B
Wed 07:18:02 AM 41.4520 12.1650 131° Southeast 485 558 37,000  Level FlightAware ADS-B
Wed 07:18:47 AM 41.3860 12.2680 130° Southeast 491 565 37,000  Level FlightAware ADS-B
Wed 07:19:45 AM 41.3120 12.3840 130° Southeast 492 566 37,000  Level FlightAware ADS-B
Wed 07:20:21 AM 41.2680 12.4550 129° Southeast 492 566 37,000  Level FlightAware ADS-B
Wed 07:21:01 AM 41.2180 12.5340 130° Southeast 492 566 37,000  Level FlightAware ADS-B
Wed 07:21:48 AM 41.1160 12.6830 132° Southeast 496 571 37,000  Level FlightAware ADS-B
Wed 07:22:30 AM 41.0520 12.7810 131° Southeast 497 572 37,000  Level FlightAware ADS-B
Wed 07:23:14 AM 40.9920 12.8720 131° Southeast 498 573 37,000  Level FlightAware ADS-B
Wed 07:23:50 AM 40.9460 12.9430 131° Southeast 498 573 37,000  Level FlightAware ADS-B
Wed 07:24:38 AM 40.8690 13.0910 124° Southeast 502 578 37,000  Level FlightAware ADS-B
Wed 07:25:18 AM 40.8240 13.1940 120° Southeast 503 579 37,000  Level FlightAware ADS-B
Wed 07:26:00 AM 40.7750 13.3080 120° Southeast 504 580 37,000  Level FlightAware ADS-B
Wed 07:26:42 AM 40.7260 13.4200 120° Southeast 505 581 37,000  Level FlightAware ADS-B
Wed 07:27:20 AM 40.6840 13.5150 120° Southeast 505 581 37,000  Level FlightAware ADS-B
Wed 07:28:03 AM 40.6310 13.6360 120° Southeast 504 580 37,000  Level FlightAware ADS-B
Wed 07:28:49 AM 40.5770 13.7570 120° Southeast 504 580 37,000  Level FlightAware ADS-B
Wed 07:29:31 AM 40.5280 13.8690 120° Southeast 504 580 37,000  Level FlightAware ADS-B
Wed 07:30:09 AM 40.4820 13.9700 121° Southeast 502 578 37,000  Level FlightAware ADS-B
Wed 07:30:53 AM 40.4310 14.0840 120° Southeast 503 579 37,000  Level FlightAware ADS-B
Wed 07:31:37 AM 40.3780 14.2010 121° Southeast 503 579 37,000  Level FlightAware ADS-B
Wed 07:32:13 AM 40.3350 14.2950 121° Southeast 503 579 37,000  Level FlightAware ADS-B
Wed 07:32:59 AM 40.2810 14.4140 121° Southeast 503 579 37,000  Level FlightAware ADS-B
Wed 07:33:43 AM 40.2280 14.5270 122° Southeast 504 580 37,000  Level FlightAware ADS-B
Wed 07:34:17 AM 40.1870 14.6170 121° Southeast 505 581 37,000  Level FlightAware ADS-B
Wed 07:35:05 AM 40.1270 14.7450 121° Southeast 506 582 37,000  Level FlightAware ADS-B
Wed 07:36:26 AM 40.0490 14.9150 121° Southeast 506 582 37,000  Level FlightAware ADS-B
Wed 07:37:11 AM 39.9780 15.0640 122° Southeast 507 583 37,000  Level FlightAware ADS-B
Wed 07:37:53 AM 39.9210 15.1860 121° Southeast 513 590 37,000  Level FlightAware ADS-B
Wed 07:38:31 AM 39.8750 15.2830 122° Southeast 514 592 37,000  Level FlightAware ADS-B
Wed 07:39:19 AM 39.8130 15.4140 122° Southeast 517 595 37,000  Level FlightAware ADS-B
Wed 07:39:59 AM 39.7640 15.5180 121° Southeast 517 595 37,000  Level FlightAware ADS-B
Wed 07:41:48 AM 39.7190 15.6140 121° Southeast 518 596 37,000  Level FlightAware ADS-B
Wed 07:42:29 AM 39.5740 15.9160 122° Southeast 519 597 37,000  Level FlightAware ADS-B
Wed 07:43:11 AM 39.5210 16.0260 122° Southeast 519 597 37,000  Level FlightAware ADS-B
Wed 07:43:53 AM 39.4670 16.1370 122° Southeast 519 597 37,000  Level FlightAware ADS-B
Wed 07:44:33 AM 39.4160 16.2430 122° Southeast 519 597 37,000  Level FlightAware ADS-B
Wed 07:45:15 AM 39.3630 16.3500 123° Southeast 519 597 37,000  Level FlightAware ADS-B
Wed 07:45:47 AM 39.3210 16.4360 122° Southeast 518 596 37,000  Level FlightAware ADS-B
Wed 07:46:43 AM 39.2500 16.5810 122° Southeast 517 595 37,000  Level FlightAware ADS-B
Wed 07:47:24 AM 39.1970 16.6880 123° Southeast 516 594 37,000  Level FlightAware ADS-B
Wed 07:48:05 AM 39.1450 16.7940 122° Southeast 515 593 37,000  Level FlightAware ADS-B
Wed 07:48:45 AM 39.0930 16.8990 123° Southeast 513 590 37,000  Level FlightAware ADS-B
Wed 07:49:46 AM 39.0230 17.0410 122° Southeast 512 589 37,000  Level FlightAware ADS-B
Wed 07:51:16 AM 38.9480 17.2720 113° Southeast 514 592 37,000  Level FlightAware ADS-B
Wed 07:51:48 AM 38.9250 17.3670 107° East 514 592 37,000  Level FlightAware ADS-B
Wed 07:52:29 AM 38.8960 17.4900 107° East 514 592 37,000  Level FlightAware ADS-B
Wed 07:53:17 AM 38.8610 17.6360 107° East 514 592 37,000  Level FlightAware ADS-B
Wed 07:54:06 AM 38.8210 17.7970 108° East 512 589 37,000  Level FlightAware ADS-B
Wed 07:54:51 AM 38.7960 17.8970 108° East 514 592 37,000  Level FlightAware ADS-B
Wed 07:55:51 AM 38.7480 18.0870 108° East 515 593 37,000  Level FlightAware ADS-B
Wed 07:56:31 AM 38.7240 18.1860 107° East 515 593 37,000  Level FlightAware ADS-B
Wed 07:57:12 AM 38.6830 18.3470 108° East 517 595 37,000  Level FlightAware ADS-B
Wed 07:57:56 AM 38.6620 18.4310 108° East 516 594 37,000  Level FlightAware ADS-B
Wed 07:58:37 AM 38.6280 18.5650 108° East 516 594 37,000  Level FlightAware ADS-B
Wed 07:59:21 AM 38.5990 18.6790 108° East 516 594 37,000  Level FlightAware ADS-B
Wed 07:59:58 AM 38.5740 18.7770 108° East 516 594 37,000  Level FlightAware ADS-B
Wed 08:00:56 AM 38.5290 18.9460 109° East 516 594 37,000  Level FlightAware ADS-B
Wed 08:01:39 AM 38.4810 19.1050 111° Southeast 507 583 37,000 -69 Level FlightAware ADS-B
Wed 08:02:23 AM 38.4190 19.2120 126° Southeast 513 590 36,900  Descending FlightAware ADS-B
Wed 08:03:11 AM 38.3940 19.3290 105° East 519 597 37,000  Climbing FlightAware ADS-B
Wed 08:03:59 AM 38.3530 19.4710 110° East 518 596 36,900 -67 Descending FlightAware ADS-B
Wed 08:04:40 AM 38.3200 19.5780 111° Southeast 519 597 36,900  Level FlightAware ADS-B
Wed 08:05:24 AM 38.2870 19.6910 110° East 520 598 36,900  Level FlightAware ADS-B
Wed 08:06:04 AM 38.2520 19.8120 110° East 521 600 36,900  Level FlightAware ADS-B
Wed 08:06:45 AM 38.2190 19.9210 111° Southeast 522 601 36,900  Level FlightAware ADS-B
Wed 08:07:37 AM 38.1740 20.0660 112° Southeast 522 601 36,900  Level FlightAware ADS-B
Wed 08:08:24 AM 38.1400 20.1810 111° Southeast 522 601 36,900  Level FlightAware ADS-B
Wed 08:09:12 AM 38.1040 20.2980 111° Southeast 522 601 36,900  Level FlightAware ADS-B
Wed 08:09:48 AM 38.0780 20.3850 111° Southeast 522 601 36,900  Level FlightAware ADS-B
Wed 08:10:49 AM 38.0330 20.5340 111° Southeast 522 601 36,900  Level FlightAware ADS-B
Wed 08:11:44 AM 37.9930 20.6670 111° Southeast 522 601 36,900  Level FlightAware ADS-B
Wed 08:12:32 AM 37.9050 20.9420 112° Southeast 526 605 36,900  Level FlightAware ADS-B
Wed 08:13:06 AM 37.8800 21.0250 111° Southeast 526 605 36,900  Level FlightAware ADS-B
Wed 08:13:55 AM 37.8430 21.1450 111° Southeast 526 605 36,900  Level FlightAware ADS-B
Wed 08:14:41 AM 37.8090 21.2570 111° Southeast 526 605 36,900  Level FlightAware ADS-B
Wed 08:15:18 AM 37.7820 21.3480 111° Southeast 526 605 36,900  Level FlightAware ADS-B
Wed 08:15:56 AM 37.7530 21.4400 112° Southeast 526 605 36,900  Level FlightAware ADS-B
Wed 08:16:45 AM 37.7170 21.5600 111° Southeast 526 605 36,900  Level FlightAware ADS-B
Wed 08:17:21 AM 37.6900 21.6480 111° Southeast 526 605 36,900  Level FlightAware ADS-B
Wed 08:18:09 AM 37.6550 21.7650 111° Southeast 526 605 36,900  Level FlightAware ADS-B
Wed 08:18:46 AM 37.6270 21.8550 111° Southeast 526 605 36,900  Level FlightAware ADS-B
Wed 08:19:42 AM 37.5860 21.9920 111° Southeast 526 605 36,900  Level FlightAware ADS-B
Wed 08:20:55 AM 37.4330 22.4040 115° Southeast 539 620 36,900  Level FlightAware ADS-B
Wed 08:21:35 AM 37.4010 22.5030 112° Southeast 539 620 36,900  Level FlightAware ADS-B
Wed 08:22:24 AM 37.3620 22.6240 112° Southeast 539 620 36,900  Level FlightAware ADS-B
Wed 08:23:03 AM 37.3050 22.7880 114° Southeast 545 627 36,900  Level FlightAware ADS-B
Wed 08:23:47 AM 37.2610 22.9180 113° Southeast 545 627 36,900  Level FlightAware ADS-B
Wed 08:24:29 AM 37.2190 23.0430 113° Southeast 546 628 36,900  Level FlightAware ADS-B
Wed 08:25:07 AM 37.1820 23.1500 113° Southeast 547 629 36,900  Level FlightAware ADS-B
Wed 08:26:07 AM 37.1220 23.3270 113° Southeast 547 629 36,900  Level FlightAware ADS-B
Wed 08:26:51 AM 37.0790 23.4540 113° Southeast 547 629 36,900  Level FlightAware ADS-B
Wed 08:27:31 AM 37.0390 23.5710 113° Southeast 547 629 36,900  Level FlightAware ADS-B
Wed 08:28:11 AM 36.9980 23.6900 113° Southeast 548 631 36,900  Level FlightAware ADS-B
Wed 08:28:55 AM 36.9540 23.8170 113° Southeast 549 632 36,900  Level FlightAware ADS-B
Wed 08:29:37 AM 36.9120 23.9400 113° Southeast 549 632 36,900  Level FlightAware ADS-B
Wed 08:30:15 AM 36.8740 24.0470 114° Southeast 548 631 36,900  Level FlightAware ADS-B
Wed 08:31:03 AM 36.8250 24.1880 113° Southeast 550 633 36,900  Level FlightAware ADS-B
Wed 08:31:45 AM 36.7820 24.3090 114° Southeast 550 633 36,900  Level FlightAware ADS-B
Wed 08:32:19 AM 36.7470 24.4080 114° Southeast 551 634 36,900  Level FlightAware ADS-B
Wed 08:33:09 AM 36.6960 24.5540 114° Southeast 552 635 36,900  Level FlightAware ADS-B
Wed 08:33:49 AM 36.6540 24.6720 114° Southeast 553 636 36,900  Level FlightAware ADS-B
Wed 08:34:34 AM 36.6080 24.8000 114° Southeast 553 636 36,900  Level FlightAware ADS-B
Wed 08:35:13 AM 36.5660 24.9170 114° Southeast 554 638 36,900  Level FlightAware ADS-B
Wed 08:35:57 AM 36.5210 25.0430 114° Southeast 554 638 36,900  Level FlightAware ADS-B
Wed 08:36:37 AM 36.4800 25.1600 114° Southeast 555 639 36,900  Level FlightAware ADS-B
Wed 08:37:17 AM 36.4380 25.2760 114° Southeast 555 639 36,900  Level FlightAware ADS-B
Wed 08:38:01 AM 36.3920 25.4040 114° Southeast 555 639 36,900  Level FlightAware ADS-B
Wed 08:38:43 AM 36.3470 25.5270 114° Southeast 553 636 36,900  Level FlightAware ADS-B
Wed 08:39:21 AM 36.3070 25.6370 114° Southeast 551 634 36,900  Level FlightAware ADS-B
Wed 08:40:04 AM 36.2650 25.7530 114° Southeast 550 633 36,900  Level FlightAware ADS-B
Wed 08:41:02 AM 36.2040 25.9160 115° Southeast 549 632 36,900  Level FlightAware ADS-B
Wed 08:41:45 AM 36.1550 26.0480 115° Southeast 549 632 36,900  Level FlightAware ADS-B
Wed 08:42:27 AM 36.1100 26.1690 115° Southeast 548 631 36,900  Level FlightAware ADS-B
Wed 08:43:09 AM 36.0660 26.2860 115° Southeast 547 629 36,900  Level FlightAware ADS-B
Wed 08:43:51 AM 36.0210 26.4060 115° Southeast 547 629 36,900  Level FlightAware ADS-B
Wed 08:44:33 AM 35.9760 26.5250 115° Southeast 548 631 36,900  Level FlightAware ADS-B
Wed 08:45:38 AM 35.9240 26.6620 115° Southeast 548 631 36,900  Level FlightAware ADS-B
Wed 08:47:08 AM 35.8680 26.8080 115° Southeast 547 629 36,900  Level FlightAware ADS-B
Wed 08:47:49 AM 35.7720 27.0570 115° Southeast 547 629 36,900  Level FlightAware ADS-B
Wed 08:48:30 AM 35.7310 27.1630 115° Southeast 548 631 36,900  Level FlightAware ADS-B
Wed 08:49:13 AM 35.6900 27.2690 115° Southeast 548 631 36,900  Level FlightAware ADS-B
Wed 08:49:54 AM 35.6530 27.3680 115° Southeast 548 631 36,900  Level FlightAware ADS-B
Wed 08:50:32 AM 35.6180 27.4590 115° Southeast 548 631 36,900  Level FlightAware ADS-B
Wed 08:51:15 AM 35.5790 27.5620 115° Southeast 548 631 36,900  Level FlightAware ADS-B
Wed 08:52:03 AM 35.5350 27.6770 115° Southeast 548 631 36,900  Level FlightAware ADS-B
Wed 08:52:39 AM 35.5030 27.7640 114° Southeast 548 631 36,900  Level FlightAware ADS-B
Wed 08:53:21 AM 35.4020 28.0030 117° Southeast 545 627 36,900  Level FlightAware ADS-B
Wed 08:54:09 AM 35.3470 28.1430 116° Southeast 546 628 36,900  Level FlightAware ADS-B
Wed 08:54:49 AM 35.3040 28.2510 116° Southeast 546 628 36,900  Level FlightAware ADS-B
Wed 08:55:25 AM 35.2630 28.3520 116° Southeast 545 627 36,900  Level FlightAware ADS-B
Wed 08:56:15 AM 35.2070 28.4900 116° Southeast 549 632 36,900  Level FlightAware ADS-B
Wed 08:56:54 AM 35.1640 28.5990 116° Southeast 553 636 36,900  Level FlightAware ADS-B
Wed 08:57:36 AM 35.1190 28.7100 116° Southeast 551 634 36,900  Level FlightAware ADS-B
Wed 08:58:20 AM 35.0750 28.8200 116° Southeast 550 633 36,900  Level FlightAware ADS-B
Wed 08:59:04 AM 35.0190 28.9560 117° Southeast 548 631 36,900  Level FlightAware ADS-B
Wed 08:59:43 AM 34.9740 29.0670 116° Southeast 548 631 36,900  Level FlightAware ADS-B
Wed 09:00:18 AM 34.9380 29.1540 117° Southeast 547 629 36,900  Level FlightAware ADS-B
Wed 09:01:02 AM 34.8850 29.2820 117° Southeast 546 628 36,900  Level FlightAware ADS-B
Wed 09:01:29 AM 34.8630 29.3370 116° Southeast 36,900  Level FlightAware ADS-B
Wed 09:02:01 AM 34.8330 29.4090 117° Southeast 546 628 36,900  Level FlightAware ADS-B
Wed 09:02:44 AM 34.7680 29.5650 117° Southeast 543 625 36,900  Level FlightAware ADS-B
Wed 09:03:25 AM 34.7200 29.6780 117° Southeast 543 625 36,900  Level FlightAware ADS-B
Wed 09:04:04 AM 34.6750 29.7860 117° Southeast 543 625 36,900  Level FlightAware ADS-B
Wed 09:04:40 AM 34.6350 29.8800 117° Southeast 543 625 36,900  Level FlightAware ADS-B
Wed 09:05:20 AM 34.5940 29.9800 116° Southeast 543 625 36,900  Level FlightAware ADS-B
Wed 09:05:44 AM 34.5720 30.0360 115° Southeast 543 625 36,900  Level FlightAware ADS-B
Wed 09:06:24 AM 34.5070 30.1640 122° Southeast 546 628 36,900  Level FlightAware ADS-B
Wed 09:07:09 AM 34.4500 30.2820 120° Southeast 546 628 36,900  Level FlightAware ADS-B
Wed 09:07:54 AM 34.3920 30.4000 121° Southeast 547 629 36,900  Level FlightAware ADS-B
Wed 09:08:35 AM 34.3400 30.5080 120° Southeast 548 631 36,900  Level FlightAware ADS-B
Wed 09:09:16 AM 34.2880 30.6160 120° Southeast 549 632 36,900  Level FlightAware ADS-B
Wed 09:10:01 AM 34.2290 30.7380 120° Southeast 550 633 36,900  Level FlightAware ADS-B
Wed 09:10:56 AM 34.1770 30.8440 121° Southeast 551 634 36,900  Level FlightAware ADS-B
Wed 09:11:37 AM 34.1050 30.9920 120° Southeast 549 632 36,900  Level FlightAware ADS-B
Wed 09:12:17 AM 34.0530 31.1000 120° Southeast 550 633 36,900  Level FlightAware ADS-B
Wed 09:13:03 AM 33.9970 31.2150 120° Southeast 552 635 36,900  Level FlightAware ADS-B
Wed 09:13:42 AM 33.9450 31.3210 121° Southeast 547 629 36,900  Level FlightAware ADS-B
Wed 09:14:13 AM 33.9030 31.4060 121° Southeast 541 623 36,900  Level FlightAware ADS-B
Wed 09:14:53 AM 33.8520 31.5100 121° Southeast 537 618 36,900  Level FlightAware ADS-B
Wed 09:15:49 AM 33.7810 31.6520 121° Southeast 536 617 36,900  Level FlightAware ADS-B
Wed 09:16:44 AM 33.7110 31.7920 121° Southeast 534 615 36,900  Level FlightAware ADS-B
Wed 09:17:24 AM 33.6610 31.8930 121° Southeast 533 613 36,900  Level FlightAware ADS-B
Wed 09:18:10 AM 33.6020 32.0120 121° Southeast 532 612 36,900  Level FlightAware ADS-B
Wed 09:18:35 AM 33.5700 32.0750 121° Southeast 533 613 36,900  Level FlightAware ADS-B
Wed 09:19:21 AM 33.5160 32.1830 121° Southeast 533 613 36,900  Level FlightAware ADS-B
Wed 09:19:56 AM 33.4670 32.2810 121° Southeast 534 615 36,900  Level FlightAware ADS-B
Wed 09:20:45 AM 33.4050 32.4020 122° Southeast 533 613 36,900  Level FlightAware ADS-B
Wed 09:21:27 AM 33.3510 32.5100 121° Southeast 534 615 36,900 -903 Level FlightAware ADS-B
Wed 09:22:18 AM 33.2930 32.6230 122° Southeast 544 626 35,500 -1,750 Descending FlightAware ADS-B
Wed 09:23:03 AM 33.2280 32.7490 122° Southeast 534 615 34,100 -2,090 Descending FlightAware ADS-B
Wed 09:23:47 AM 33.1690 32.8670 121° Southeast 531 611 32,400 -2,286 Descending FlightAware ADS-B
Wed 09:24:27 AM 33.1220 32.9580 122° Southeast 535 616 30,900 -1,518 Descending FlightAware ADS-B
Wed 09:25:10 AM 33.0750 33.0510 121° Southeast 530 610 30,300 -1,463 Descending FlightAware ADS-B
Wed 09:25:49 AM 33.0090 33.1770 122° Southeast 547 629 28,900 -1,105 Descending FlightAware ADS-B
Wed 09:26:26 AM 32.9610 33.2670 122° Southeast 517 595 28,900 -929 Level FlightAware ADS-B
Wed 09:27:13 AM 32.9030 33.3800 121° Southeast 483 556 27,600 -2,000 Descending FlightAware ADS-B
Wed 09:27:59 AM 32.8510 33.4800 122° Southeast 444 511 25,800 -2,182 Descending FlightAware ADS-B
Wed 09:28:41 AM 32.8070 33.5620 123° Southeast 409 471 24,400 -2,025 Descending FlightAware ADS-B
Wed 09:29:19 AM 32.7710 33.6330 121° Southeast 375 432 23,100 -1,902 Descending FlightAware ADS-B
Wed 09:30:03 AM 32.7320 33.7070 122° Southeast 355 409 21,800 -1,661 Descending FlightAware ADS-B
Wed 09:31:11 AM 32.6950 33.7770 122° Southeast 343 395 20,000 -2,541 Descending FlightAware ADS-B
Wed 09:31:54 AM 32.6390 33.8860 121° Southeast 329 379 17,100 -2,857 Descending FlightAware ADS-B
Wed 09:32:35 AM 32.6050 33.9460 124° Southeast 321 369 16,000 -1,694 Descending FlightAware ADS-B
Wed 09:33:19 AM 32.5620 34.0050 131° Southeast 328 377 14,700 -1,423 Descending FlightAware ADS-B
Wed 09:34:12 AM 32.5240 34.0600 129° Southeast 325 374 13,700 -1,389 Descending FlightAware ADS-B
Wed 09:34:54 AM 32.4730 34.1360 128° Southeast 319 367 12,500 -1,500 Descending FlightAware ADS-B
Wed 09:35:52 AM 32.4200 34.2130 129° Southeast 310 357 11,200 -1,340 Descending FlightAware ADS-B
Wed 09:36:28 AM 32.3860 34.2610 130° Southeast 305 351 10,400 -1,200 Descending FlightAware ADS-B
Wed 09:37:02 AM 32.3550 34.3040 130° Southeast 296 341 9,800 -900 Descending FlightAware ADS-B
Wed 09:37:28 AM 32.3330 34.3360 129° Southeast 286 329 9,500 -1,034 Descending FlightAware ADS-B
Wed 09:38:00 AM 32.3060 34.3740 130° Southeast 281 323 8,800 -677 Descending FlightAware ADS-B
Wed 09:38:30 AM 32.2860 34.4040 128° Southeast 281 323 8,800  Level FlightAware ADS-B
Wed 09:38:55 AM 32.2680 34.4290 130° Southeast 281 323 8,800  Level FlightAware ADS-B
Wed 09:39:19 AM 32.2510 34.4530 130° Southeast 281 323 8,800  Level FlightAware ADS-B
Wed 09:39:43 AM 32.2350 34.4780 127° Southeast 281 323 8,800 -1,358 Level FlightAware ADS-B
Wed 09:41:29 AM 32.1540 34.6250 123° Southeast 5,200 -1,600 Descending FlightAware ADS-B
Wed 09:41:58 AM 32.1300 34.6700 122° Southeast 279 321 5,200  Level FlightAware ADS-B
Wed 09:42:24 AM 32.1150 34.6980 122° Southeast 278 320 5,200  Level FlightAware ADS-B
Wed 09:42:52 AM 32.0920 34.7370 125° Southeast 277 319 5,200  Level FlightAware ADS-B
Wed 09:43:14 AM 32.0760 34.7670 122° Southeast 275 316 5,200  Level FlightAware ADS-B
Wed 09:43:32 AM 32.0640 34.7870 125° Southeast 256 295 5,200  Level FlightAware ADS-B
Wed 09:44:02 AM 32.0440 34.8180 127° Southeast 245 282 5,200 -327 Level FlightAware ADS-B
Wed 09:44:27 AM 32.0230 34.8410 137° Southeast 226 260 4,900 -545 Descending FlightAware ADS-B
Wed 09:44:57 AM 32.0010 34.8660 136° Southeast 209 241 4,700 -632 Descending FlightAware ADS-B
Wed 09:45:24 AM 31.9850 34.8830 138° Southeast 213 245 4,300 -811 Descending FlightAware ADS-B
Wed 09:45:34 AM 31.9820 34.8860 140° Southeast 214 246 4,200 -732 Descending FlightAware ADS-B
Wed 09:46:05 AM 31.9620 34.9040 143° Southeast 206 237 3,800 -1,304 Descending FlightAware ADS-B
Wed 09:46:20 AM 31.9520 34.9270 117° Southeast 203 234 3,200 -1,500 Descending FlightAware ADS-B
Wed 09:46:49 AM 31.9560 34.9630 83° East 178 205 2,700 -833 Descending FlightAware ADS-B
Wed 09:47:32 AM 31.9660 34.9980 71° East 171 197 2,200 -698 Descending FlightAware ADS-B
Wed 09:50:00 AM 32.0095 34.8769 293° West  Level Estimated
Wed 09:51:00 AM 32.0095 34.8769 270° West  Level Estimated

Login

Don't have an account? Register now (free) for customized features, flight alerts, and more!